createdAt,value
2019-04-16T00:01:25.007Z,8.00
2019-04-16T00:03:59.612Z,8.10
2019-04-16T00:06:40.471Z,8.10
2019-04-16T00:09:15.019Z,8.10
2019-04-16T00:11:52.705Z,8.10
2019-04-16T00:14:30.141Z,8.10
2019-04-16T00:17:00.010Z,8.10
2019-04-16T00:19:29.784Z,8.00
2019-04-16T00:22:12.328Z,8.10
2019-04-16T00:24:44.268Z,8.10
2019-04-16T00:27:14.051Z,8.00
2019-04-16T00:29:43.878Z,8.00
2019-04-16T00:32:15.309Z,8.00
2019-04-16T00:34:45.455Z,8.00
2019-04-16T00:37:20.525Z,8.00
2019-04-16T00:39:47.795Z,8.00
2019-04-16T00:42:17.581Z,7.90
2019-04-16T00:44:47.394Z,7.90
2019-04-16T00:47:17.739Z,7.90
2019-04-16T00:49:47.607Z,7.90
2019-04-16T00:52:17.511Z,7.90
2019-04-16T00:54:47.294Z,8.00
2019-04-16T00:57:18.006Z,7.90
2019-04-16T00:59:48.403Z,8.00
2019-04-16T01:02:18.186Z,8.00
2019-04-16T01:04:48.406Z,8.00
2019-04-16T01:07:19.231Z,8.00
2019-04-16T01:09:49.012Z,8.00
2019-04-16T01:12:18.803Z,8.00
2019-04-16T01:14:48.623Z,8.00
2019-04-16T01:17:18.417Z,8.00
2019-04-16T01:19:48.638Z,8.00
2019-04-16T01:22:18.653Z,8.10
2019-04-16T01:24:51.597Z,8.10
2019-04-16T01:27:21.912Z,8.10
2019-04-16T01:29:52.451Z,8.10
2019-04-16T01:32:24.072Z,8.10
2019-04-16T01:35:02.208Z,8.10
2019-04-16T01:37:33.678Z,8.10
2019-04-16T01:40:05.899Z,8.20
2019-04-16T01:42:35.715Z,8.10
2019-04-16T01:45:07.527Z,8.10
2019-04-16T01:47:37.614Z,8.10
2019-04-16T01:50:07.708Z,8.10
2019-04-16T01:52:37.726Z,8.10
2019-04-16T01:55:07.515Z,8.20
2019-04-16T01:57:37.329Z,8.30
2019-04-16T02:00:08.802Z,8.30
2019-04-16T02:02:38.902Z,8.30
2019-04-16T02:05:08.823Z,8.30
2019-04-16T02:07:38.607Z,8.30
2019-04-16T02:10:08.842Z,8.30
2019-04-16T02:12:43.425Z,8.30
2019-04-16T02:15:13.129Z,8.30
2019-04-16T02:17:42.904Z,8.30
2019-04-16T02:20:13.230Z,8.40
2019-04-16T02:22:45.134Z,8.30
2019-04-16T02:25:18.987Z,8.30
2019-04-16T02:27:46.663Z,8.30
2019-04-16T02:30:17.040Z,8.40
2019-04-16T02:32:46.864Z,8.40
2019-04-16T02:35:16.706Z,8.40
2019-04-16T02:37:47.142Z,8.40
2019-04-16T02:40:18.850Z,8.40
2019-04-16T02:42:48.900Z,8.40
2019-04-16T02:45:23.012Z,8.30
2019-04-16T02:47:50.127Z,8.30
2019-04-16T02:50:21.551Z,8.30
2019-04-16T02:52:58.852Z,8.30
2019-04-16T02:55:43.900Z,8.30
2019-04-16T02:58:12.514Z,8.40
2019-04-16T03:00:59.172Z,8.30
2019-04-16T03:03:33.655Z,8.30
2019-04-16T03:06:03.605Z,8.30
2019-04-16T03:08:36.219Z,8.30
2019-04-16T03:11:05.977Z,8.30
2019-04-16T03:13:35.821Z,8.30
2019-04-16T03:16:15.108Z,8.30
2019-04-16T03:18:47.502Z,8.30
2019-04-16T03:21:17.939Z,8.30
2019-04-16T03:23:47.755Z,8.20
2019-04-16T03:26:18.163Z,8.20
2019-04-16T03:28:48.324Z,8.30
2019-04-16T03:31:22.912Z,8.30
2019-04-16T03:33:51.204Z,8.20
2019-04-16T03:36:21.281Z,8.20
2019-04-16T03:38:51.102Z,8.30
2019-04-16T03:41:21.470Z,8.30
2019-04-16T03:43:51.259Z,8.20
2019-04-16T03:46:21.662Z,8.20
2019-04-16T03:48:52.611Z,8.10
2019-04-16T03:51:22.854Z,8.10
2019-04-16T03:53:52.674Z,8.10
2019-04-16T03:56:23.076Z,8.10
2019-04-16T03:58:52.867Z,8.10
2019-04-16T04:01:22.990Z,8.10
2019-04-16T04:03:54.447Z,8.10
2019-04-16T04:06:24.193Z,8.10
2019-04-16T04:08:54.018Z,8.10
2019-04-16T04:11:23.803Z,8.10
2019-04-16T04:13:53.589Z,8.10
2019-04-16T04:16:23.420Z,8.10
2019-04-16T04:18:53.203Z,8.10
2019-04-16T04:21:22.986Z,8.10
2019-04-16T04:23:53.158Z,8.10
2019-04-16T04:26:23.438Z,8.10
2019-04-16T04:28:53.631Z,8.10
2019-04-16T04:31:24.126Z,8.10
2019-04-16T04:33:54.428Z,8.10
2019-04-16T04:36:26.963Z,8.10
2019-04-16T04:38:55.974Z,8.20
2019-04-16T04:41:25.758Z,8.20
2019-04-16T04:43:55.539Z,8.10
2019-04-16T04:46:25.766Z,8.10
2019-04-16T04:48:59.943Z,8.10
2019-04-16T04:51:27.459Z,8.00
2019-04-16T04:53:57.283Z,7.90
2019-04-16T04:56:27.973Z,7.90
2019-04-16T04:58:58.566Z,7.90
2019-04-16T05:01:28.450Z,7.90
2019-04-16T05:04:20.612Z,7.90
2019-04-16T05:06:51.047Z,7.90
2019-04-16T05:09:20.840Z,7.90
2019-04-16T05:11:50.628Z,7.90
2019-04-16T05:14:20.752Z,7.90
2019-04-16T05:16:50.644Z,7.90
2019-04-16T05:19:20.426Z,7.90
2019-04-16T05:21:50.878Z,7.90
2019-04-16T05:24:20.639Z,8.00
2019-04-16T05:26:50.423Z,8.00
2019-04-16T05:29:20.259Z,7.90
2019-04-16T05:31:51.259Z,7.90
2019-04-16T05:34:21.079Z,8.00
2019-04-16T05:36:51.174Z,8.00
2019-04-16T05:39:21.200Z,8.00
2019-04-16T05:41:52.992Z,8.10
2019-04-16T05:44:22.869Z,8.10
2019-04-16T05:46:52.651Z,8.20
2019-04-16T05:49:25.642Z,8.20
2019-04-16T05:51:53.883Z,8.30
2019-04-16T05:54:37.614Z,8.30
2019-04-16T05:57:12.435Z,8.30
2019-04-16T05:59:42.222Z,8.40
2019-04-16T06:02:15.004Z,8.40
2019-04-16T06:04:45.108Z,8.50
2019-04-16T06:07:14.893Z,8.60
2019-04-16T06:09:45.321Z,8.60
2019-04-16T06:12:15.523Z,8.60
2019-04-16T06:14:49.584Z,8.60
2019-04-16T06:17:20.520Z,8.60
2019-04-16T06:19:52.227Z,8.60
2019-04-16T06:22:28.340Z,8.60
2019-04-16T06:25:09.688Z,8.60
2019-04-16T06:27:50.563Z,8.60
2019-04-16T06:30:22.032Z,8.60
2019-04-16T06:32:58.838Z,8.60
2019-04-16T06:35:46.815Z,8.60
2019-04-16T06:38:18.246Z,8.70
2019-04-16T06:41:03.146Z,8.70
2019-04-16T06:43:47.485Z,8.80
2019-04-16T06:46:21.963Z,8.80
2019-04-16T06:48:59.285Z,8.80
2019-04-16T06:51:34.184Z,8.90
2019-04-16T06:54:18.068Z,8.90
2019-04-16T06:56:50.473Z,9.00
2019-04-16T06:59:38.271Z,9.00
2019-04-16T07:02:26.803Z,9.10
2019-04-16T07:05:01.970Z,9.00
2019-04-16T07:07:39.854Z,9.10
2019-04-16T07:10:09.431Z,9.10
2019-04-16T07:12:39.778Z,9.20
2019-04-16T07:15:10.458Z,9.20
2019-04-16T07:17:40.682Z,9.20
2019-04-16T07:20:13.469Z,9.30
2019-04-16T07:22:42.079Z,9.40
2019-04-16T07:25:12.566Z,9.40
2019-04-16T07:27:44.019Z,9.40
2019-04-16T07:30:20.848Z,9.50
2019-04-16T07:32:50.903Z,9.50
2019-04-16T07:35:34.340Z,9.50
2019-04-16T07:38:24.452Z,9.60
2019-04-16T07:41:12.839Z,9.60
2019-04-16T07:44:08.111Z,9.70
2019-04-16T07:46:35.599Z,9.80
2019-04-16T07:49:07.387Z,9.80
2019-04-16T07:51:55.414Z,9.80
2019-04-16T07:54:32.937Z,9.90
2019-04-16T07:57:02.763Z,9.90
2019-04-16T07:59:33.006Z,9.90
2019-04-16T08:02:02.866Z,10.00
2019-04-16T08:04:35.641Z,10.00
2019-04-16T08:07:04.103Z,10.00
2019-04-16T08:09:33.891Z,10.00
2019-04-16T08:12:03.720Z,10.10
2019-04-16T08:14:33.508Z,10.00
2019-04-16T08:17:03.365Z,10.10
2019-04-16T08:19:37.241Z,10.10
2019-04-16T08:22:05.049Z,10.10
2019-04-16T08:24:45.719Z,10.00
2019-04-16T08:27:19.222Z,10.10
2019-04-16T08:29:48.094Z,10.20
2019-04-16T08:32:17.919Z,10.20
2019-04-16T08:34:47.708Z,10.20
2019-04-16T08:37:17.502Z,10.20
2019-04-16T08:39:47.588Z,10.30
2019-04-16T08:42:17.742Z,10.30
2019-04-16T08:44:49.227Z,10.40
2019-04-16T08:47:19.047Z,10.50
2019-04-16T08:49:53.618Z,10.60
2019-04-16T08:52:20.606Z,10.60
2019-04-16T08:54:54.540Z,10.70
2019-04-16T08:57:21.832Z,10.80
2019-04-16T08:59:51.632Z,10.90
2019-04-16T09:02:23.625Z,11.00
2019-04-16T09:04:54.125Z,11.00
2019-04-16T09:07:39.274Z,11.00
2019-04-16T09:10:18.864Z,11.00
2019-04-16T09:12:50.711Z,11.10
2019-04-16T09:15:18.982Z,11.30
2019-04-16T09:17:50.361Z,11.40
2019-04-16T09:20:23.282Z,11.60
2019-04-16T09:22:54.674Z,11.70
2019-04-16T09:25:31.799Z,11.90
2019-04-16T09:28:24.436Z,12.00
2019-04-16T09:31:01.137Z,12.10
2019-04-16T09:33:41.731Z,12.30
2019-04-16T09:36:13.159Z,12.30
2019-04-16T09:38:53.638Z,12.30
2019-04-16T09:41:29.022Z,12.30
2019-04-16T09:44:00.330Z,12.30
2019-04-16T09:46:50.425Z,12.30
2019-04-16T09:49:04.761Z,12.30
2019-04-16T09:51:33.516Z,12.20
2019-04-16T09:54:03.370Z,12.20
2019-04-16T09:56:33.174Z,12.10
2019-04-16T09:59:10.992Z,12.20
2019-04-16T10:01:44.815Z,12.30
2019-04-16T10:04:19.807Z,12.30
2019-04-16T10:06:49.552Z,12.30
2019-04-16T10:09:21.967Z,12.30
2019-04-16T10:11:50.968Z,12.50
2019-04-16T10:14:20.748Z,12.60
2019-04-16T10:16:50.540Z,12.80
2019-04-16T10:19:21.917Z,12.90
2019-04-16T10:21:54.484Z,13.10
2019-04-16T10:24:41.721Z,13.10
2019-04-16T10:27:13.122Z,13.10
2019-04-16T10:29:42.930Z,13.20
2019-04-16T10:32:12.878Z,13.20
2019-04-16T10:34:42.690Z,13.50
2019-04-16T10:37:13.779Z,13.60
2019-04-16T10:39:48.273Z,13.50
2019-04-16T10:42:28.524Z,13.50
2019-04-16T10:44:59.990Z,13.80
2019-04-16T10:47:35.838Z,14.00
2019-04-16T10:50:07.817Z,14.40
2019-04-16T10:52:55.797Z,14.60
2019-04-16T10:55:27.286Z,14.70
2019-04-16T10:58:15.190Z,14.60
2019-04-16T11:00:46.637Z,14.50
2019-04-16T11:03:20.871Z,14.50
2019-04-16T11:05:57.075Z,14.70
2019-04-16T11:08:26.508Z,14.80
2019-04-16T11:10:56.299Z,14.90
2019-04-16T11:13:31.461Z,14.60
2019-04-16T11:16:02.943Z,14.40
2019-04-16T11:18:32.714Z,14.30
2019-04-16T11:21:03.831Z,14.30
2019-04-16T11:23:33.687Z,14.10
2019-04-16T11:26:03.479Z,13.90
2019-04-16T11:28:33.482Z,14.00
2019-04-16T11:31:07.927Z,14.00
2019-04-16T11:33:37.803Z,14.10
2019-04-16T11:36:18.585Z,13.90
2019-04-16T11:38:41.843Z,13.80
2019-04-16T11:41:11.656Z,13.90
2019-04-16T11:43:42.349Z,13.90
2019-04-16T11:46:12.304Z,14.10
2019-04-16T11:48:42.190Z,14.30
2019-04-16T11:51:12.152Z,14.40
2019-04-16T11:53:41.932Z,14.70
2019-04-16T11:56:12.062Z,14.90
2019-04-16T11:58:47.525Z,14.90
2019-04-16T12:01:28.408Z,14.90
2019-04-16T12:03:59.846Z,14.90
2019-04-16T12:06:46.255Z,14.80
2019-04-16T12:09:34.025Z,14.80
2019-04-16T12:12:05.795Z,14.70
2019-04-16T12:14:42.061Z,14.60
2019-04-16T12:17:16.636Z,14.60
2019-04-16T12:19:56.956Z,14.70
2019-04-16T12:22:28.929Z,14.90
2019-04-16T12:25:18.118Z,15.00
2019-04-16T12:27:49.583Z,15.00
2019-04-16T12:30:26.894Z,15.00
2019-04-16T12:32:58.341Z,15.10
2019-04-16T12:35:34.825Z,15.00
2019-04-16T12:38:19.219Z,14.90
2019-04-16T12:41:08.964Z,15.00
2019-04-16T12:46:35.158Z,14.90
2019-04-16T12:49:06.742Z,14.90
2019-04-16T12:51:40.813Z,14.80
2019-04-16T12:54:27.679Z,14.90
2019-04-16T12:57:04.916Z,15.10
2019-04-16T12:59:39.746Z,15.30
2019-04-16T13:02:26.111Z,15.60
2019-04-16T13:05:03.862Z,16.10
2019-04-16T13:07:39.132Z,16.40
2019-04-16T13:10:11.012Z,16.70
2019-04-16T13:12:58.984Z,16.90
2019-04-16T13:15:49.467Z,17.00
2019-04-16T13:18:26.678Z,16.90
2019-04-16T13:21:03.977Z,16.70
2019-04-16T13:23:36.706Z,16.60
2019-04-16T13:26:14.268Z,16.50
2019-04-16T13:28:44.059Z,16.30
2019-04-16T13:31:14.412Z,16.10
2019-04-16T13:33:46.208Z,15.80
2019-04-16T13:36:15.817Z,15.40
2019-04-16T13:38:53.206Z,15.20
2019-04-16T13:41:26.346Z,15.10
2019-04-16T13:44:17.108Z,15.00
2019-04-16T13:46:46.207Z,15.00
2019-04-16T13:49:24.161Z,15.20
2019-04-16T13:51:52.042Z,15.30
2019-04-16T13:54:35.765Z,15.40
2019-04-16T13:57:10.208Z,15.60
2019-04-16T14:00:03.025Z,15.80
2019-04-16T14:02:50.786Z,15.70
2019-04-16T14:05:19.181Z,15.70
2019-04-16T14:07:49.040Z,15.50
2019-04-16T14:10:18.965Z,15.40
2019-04-16T14:12:49.497Z,15.50
2019-04-16T14:15:31.671Z,15.60
2019-04-16T14:17:53.401Z,15.60
2019-04-16T14:20:23.379Z,15.60
2019-04-16T14:22:53.540Z,15.70
2019-04-16T14:25:24.259Z,15.50
2019-04-16T14:27:55.527Z,15.50
2019-04-16T14:30:27.132Z,15.30
2019-04-16T14:32:56.914Z,15.20
2019-04-16T14:35:33.553Z,15.30
2019-04-16T14:38:00.383Z,15.30
2019-04-16T14:40:30.169Z,15.50
2019-04-16T14:43:00.225Z,15.30
2019-04-16T14:45:56.774Z,15.30
2019-04-16T14:48:11.902Z,15.10
2019-04-16T14:50:41.947Z,15.00
2019-04-16T14:53:13.590Z,14.90
2019-04-16T14:56:00.053Z,14.80
2019-04-16T14:58:37.778Z,14.90
2019-04-16T15:01:09.343Z,14.90
2019-04-16T15:03:50.071Z,14.90
2019-04-16T15:06:36.290Z,14.80
2019-04-16T15:09:18.399Z,14.70
2019-04-16T15:12:08.149Z,14.80
2019-04-16T15:14:38.878Z,14.70
2019-04-16T15:17:12.743Z,14.70
2019-04-16T15:19:43.401Z,14.70
2019-04-16T15:22:26.963Z,14.70
2019-04-16T15:25:13.816Z,14.70
2019-04-16T15:27:57.246Z,14.60
2019-04-16T15:30:31.467Z,14.60
2019-04-16T15:33:07.260Z,14.60
2019-04-16T15:35:38.796Z,14.60
2019-04-16T15:38:10.227Z,14.70
2019-04-16T15:40:42.802Z,14.70
2019-04-16T15:43:32.342Z,14.60
2019-04-16T15:46:07.964Z,14.50
2019-04-16T15:48:50.710Z,14.40
2019-04-16T15:51:37.671Z,14.40
2019-04-16T15:57:14.717Z,14.40
2019-04-16T15:59:46.143Z,14.40
2019-04-16T16:02:23.532Z,14.50
2019-04-16T16:05:11.197Z,14.60
2019-04-16T16:07:42.927Z,14.60
2019-04-16T16:10:20.579Z,14.50
2019-04-16T16:12:53.635Z,14.40
2019-04-16T16:15:22.488Z,14.30
2019-04-16T16:17:52.279Z,14.30
2019-04-16T16:20:22.662Z,14.20
2019-04-16T16:22:54.565Z,14.10
2019-04-16T16:25:23.870Z,14.00
2019-04-16T16:27:54.190Z,13.80
2019-04-16T16:30:24.187Z,13.70
2019-04-16T16:32:54.723Z,13.60
2019-04-16T16:35:24.539Z,13.50
2019-04-16T16:37:54.333Z,13.30
2019-04-16T16:40:24.115Z,13.30
2019-04-16T16:42:54.410Z,13.30
2019-04-16T16:45:25.880Z,13.20
2019-04-16T16:47:56.523Z,13.10
2019-04-16T16:50:26.587Z,13.10
2019-04-16T16:53:04.116Z,13.00
2019-04-16T16:55:36.755Z,13.00
2019-04-16T16:58:10.946Z,12.90
2019-04-16T17:00:56.362Z,13.00
2019-04-16T17:03:44.275Z,12.90
2019-04-16T17:06:15.738Z,12.80
2019-04-16T17:08:45.813Z,12.80
2019-04-16T17:11:17.097Z,12.80
2019-04-16T17:13:46.983Z,12.70
2019-04-16T17:16:16.771Z,12.70
2019-04-16T17:18:47.421Z,12.60
2019-04-16T17:21:17.457Z,12.60
2019-04-16T17:23:47.688Z,12.60
2019-04-16T17:26:18.075Z,12.60
2019-04-16T17:28:48.651Z,12.50
2019-04-16T17:31:18.898Z,12.40
2019-04-16T17:33:48.830Z,12.40
2019-04-16T17:36:19.203Z,12.30
2019-04-16T17:38:49.466Z,12.20
2019-04-16T17:41:24.084Z,12.20
2019-04-16T17:44:01.892Z,12.20
2019-04-16T17:46:31.295Z,12.10
2019-04-16T17:49:08.712Z,12.10
2019-04-16T17:51:48.998Z,12.00
2019-04-16T17:54:37.075Z,11.90
2019-04-16T17:57:28.973Z,11.90
2019-04-16T18:00:15.204Z,11.80
2019-04-16T18:02:55.787Z,11.70
2019-04-16T18:05:27.256Z,11.60
2019-04-16T18:08:02.439Z,11.60
2019-04-16T18:10:50.135Z,11.50
2019-04-16T18:13:31.837Z,11.50
2019-04-16T18:16:19.768Z,11.50
2019-04-16T18:19:06.618Z,11.50
2019-04-16T18:21:50.415Z,11.40
2019-04-16T18:24:24.899Z,11.30
2019-04-16T18:26:56.371Z,11.30
2019-04-16T18:29:33.513Z,11.20
2019-04-16T18:32:21.382Z,11.20
2019-04-16T18:34:56.415Z,11.10
2019-04-16T18:37:48.708Z,11.10
2019-04-16T18:40:23.394Z,11.10
2019-04-16T18:42:54.865Z,11.00
2019-04-16T18:45:42.463Z,11.00
2019-04-16T18:48:20.214Z,10.90
2019-04-16T18:50:50.056Z,10.90
2019-04-16T18:53:19.915Z,10.90
2019-04-16T18:55:49.735Z,10.80
2019-04-16T18:58:19.527Z,10.80
2019-04-16T19:00:51.116Z,10.80
2019-04-16T19:03:20.930Z,10.80
2019-04-16T19:05:50.733Z,10.70
2019-04-16T19:08:20.525Z,10.60
2019-04-16T19:10:50.811Z,10.60
2019-04-16T19:13:21.180Z,10.60
2019-04-16T19:15:51.427Z,10.60
2019-04-16T19:18:22.091Z,10.50
2019-04-16T19:20:52.678Z,10.50
2019-04-16T19:23:22.511Z,10.50
2019-04-16T19:25:55.281Z,10.40
2019-04-16T19:28:25.011Z,10.40
2019-04-16T19:30:54.807Z,10.40
2019-04-16T19:33:24.614Z,10.40
2019-04-16T19:35:54.407Z,10.40
2019-04-16T19:38:25.835Z,10.40
2019-04-16T19:40:56.347Z,10.40
2019-04-16T19:43:28.269Z,10.40
2019-04-16T19:45:57.708Z,10.40
2019-04-16T19:48:35.230Z,10.40
2019-04-16T19:50:59.883Z,10.40
2019-04-16T19:53:29.695Z,10.40
2019-04-16T19:55:59.898Z,10.30
2019-04-16T19:58:30.466Z,10.30
2019-04-16T20:01:00.265Z,10.30
2019-04-16T20:03:31.148Z,10.20
2019-04-16T20:06:02.135Z,10.10
2019-04-16T20:08:35.421Z,10.00
2019-04-16T20:11:03.969Z,10.00
2019-04-16T20:13:33.957Z,10.00
2019-04-16T20:16:03.736Z,9.90
2019-04-16T20:18:33.553Z,9.90
2019-04-16T20:21:05.538Z,9.90
2019-04-16T20:23:35.419Z,9.90
2019-04-16T20:26:05.504Z,9.90
2019-04-16T20:28:35.331Z,9.90
2019-04-16T20:31:05.123Z,9.80
2019-04-16T20:33:35.156Z,9.80
2019-04-16T20:36:05.421Z,9.70
2019-04-16T20:38:35.803Z,9.70
2019-04-16T20:41:06.087Z,9.80
2019-04-16T20:43:36.382Z,9.70
2019-04-16T20:46:09.275Z,9.70
2019-04-16T20:48:41.827Z,9.70
2019-04-16T20:51:11.263Z,9.70
2019-04-16T20:53:41.385Z,9.70
2019-04-16T20:56:11.272Z,9.70
2019-04-16T20:58:41.064Z,9.70
2019-04-16T21:01:10.920Z,9.70
2019-04-16T21:03:41.882Z,9.70
2019-04-16T21:06:11.654Z,9.60
2019-04-16T21:08:41.743Z,9.60
2019-04-16T21:11:11.953Z,9.70
2019-04-16T21:13:41.836Z,9.70
2019-04-16T21:16:11.615Z,9.70
2019-04-16T21:18:41.898Z,9.70
2019-04-16T21:21:11.686Z,9.60
2019-04-16T21:23:41.467Z,9.60
2019-04-16T21:26:11.291Z,9.70
2019-04-16T21:28:42.951Z,9.60
2019-04-16T21:31:14.373Z,9.60
2019-04-16T21:33:55.083Z,9.60
2019-04-16T21:36:38.410Z,9.50
2019-04-16T21:39:19.302Z,9.50
2019-04-16T21:41:49.082Z,9.50
2019-04-16T21:44:18.859Z,9.50
2019-04-16T21:46:58.532Z,9.50
2019-04-16T21:49:38.356Z,9.50
2019-04-16T21:52:08.573Z,9.50
2019-04-16T21:54:40.033Z,9.50
2019-04-16T21:57:13.299Z,9.50
2019-04-16T21:59:41.672Z,9.50
2019-04-16T22:02:13.891Z,9.50
2019-04-16T22:04:45.472Z,9.40
2019-04-16T22:07:15.578Z,9.40
2019-04-16T22:09:45.355Z,9.40
2019-04-16T22:12:16.316Z,9.30
2019-04-16T22:14:46.792Z,9.40
2019-04-16T22:17:16.899Z,9.40
2019-04-16T22:19:54.382Z,9.40
2019-04-16T22:22:19.493Z,9.30
2019-04-16T22:24:51.737Z,9.30
2019-04-16T22:27:20.672Z,9.30
2019-04-16T22:29:50.559Z,9.30
2019-04-16T22:32:21.460Z,9.30
2019-04-16T22:34:51.242Z,9.30
2019-04-16T22:37:21.994Z,9.30
2019-04-16T22:40:09.695Z,9.30
2019-04-16T22:42:41.888Z,9.30
2019-04-16T22:45:25.374Z,9.30
2019-04-16T22:47:56.338Z,9.30
2019-04-16T22:50:26.555Z,9.30
2019-04-16T22:52:56.337Z,9.20
2019-04-16T22:55:26.628Z,9.30
2019-04-16T22:57:59.851Z,9.30
2019-04-16T23:00:33.929Z,9.20
2019-04-16T23:03:03.719Z,9.30
2019-04-16T23:05:33.494Z,9.30
2019-04-16T23:08:03.309Z,9.30
2019-04-16T23:10:33.090Z,9.30
2019-04-16T23:13:03.555Z,9.30
2019-04-16T23:15:34.242Z,9.30
2019-04-16T23:18:04.113Z,9.20
2019-04-16T23:20:36.944Z,9.20
2019-04-16T23:23:05.331Z,9.20
2019-04-16T23:25:35.114Z,9.20
2019-04-16T23:28:09.449Z,9.20
2019-04-16T23:30:36.334Z,9.20
2019-04-16T23:33:06.118Z,9.10
2019-04-16T23:35:35.899Z,9.20
2019-04-16T23:38:06.094Z,9.20
2019-04-16T23:40:36.321Z,9.20
2019-04-16T23:43:23.904Z,9.20
2019-04-16T23:46:11.780Z,9.20
2019-04-16T23:49:11.636Z,9.20
2019-04-16T23:51:58.612Z,9.10
2019-04-16T23:54:32.243Z,9.10
2019-04-16T23:57:06.758Z,9.10
2019-04-16T23:59:56.557Z,9.10
